createdAt,value
2022-11-18T00:00:43.894Z,307.40
2022-11-18T00:01:43.889Z,347.60
2022-11-18T00:02:43.956Z,342.80
2022-11-18T00:03:43.874Z,342.90
2022-11-18T00:04:43.863Z,324.20
2022-11-18T00:05:43.860Z,325.00
2022-11-18T00:06:43.834Z,318.10
2022-11-18T00:07:43.935Z,303.60
2022-11-18T00:08:43.808Z,338.80
2022-11-18T00:09:43.821Z,353.80
2022-11-18T00:10:43.782Z,364.10
2022-11-18T00:11:43.791Z,66.10
2022-11-18T00:12:43.827Z,228.90
2022-11-18T00:13:43.774Z,222.30
2022-11-18T00:14:43.750Z,107.00
2022-11-18T00:15:43.735Z,75.60
2022-11-18T00:16:43.729Z,339.60
2022-11-18T00:17:43.753Z,68.00
2022-11-18T00:18:43.708Z,94.40
2022-11-18T00:19:43.685Z,314.30
2022-11-18T00:20:43.673Z,344.80
2022-11-18T00:21:43.666Z,311.20
2022-11-18T00:22:43.692Z,341.60
2022-11-18T00:23:43.678Z,317.90
2022-11-18T00:24:43.655Z,329.40
2022-11-18T00:25:43.631Z,323.30
2022-11-18T00:26:43.616Z,328.30
2022-11-18T00:27:43.634Z,331.50
2022-11-18T00:28:43.578Z,327.80
2022-11-18T00:29:43.606Z,318.50
2022-11-18T00:30:43.574Z,318.70
2022-11-18T00:31:43.566Z,323.00
2022-11-18T00:32:43.590Z,313.70
2022-11-18T00:33:43.539Z,302.00
2022-11-18T00:34:43.525Z,344.20
2022-11-18T00:35:43.502Z,325.90
2022-11-18T00:36:43.482Z,334.10
2022-11-18T00:37:43.509Z,337.30
2022-11-18T00:38:43.450Z,344.10
2022-11-18T00:39:43.462Z,368.00
2022-11-18T00:40:43.465Z,336.10
2022-11-18T00:41:43.451Z,363.10
2022-11-18T00:42:43.460Z,339.70
2022-11-18T00:43:43.405Z,379.00
2022-11-18T00:44:43.402Z,373.40
2022-11-18T00:45:43.404Z,378.00
2022-11-18T00:46:43.386Z,377.20
2022-11-18T00:47:43.411Z,362.90
2022-11-18T00:48:43.385Z,315.30
2022-11-18T00:49:43.347Z,366.00
2022-11-18T00:50:43.355Z,361.70
2022-11-18T00:51:43.320Z,356.70
2022-11-18T00:52:43.368Z,365.20
2022-11-18T00:53:43.330Z,351.90
2022-11-18T00:54:43.298Z,348.60
2022-11-18T00:55:43.269Z,335.40
2022-11-18T00:56:43.281Z,371.20
2022-11-18T00:57:43.303Z,376.00
2022-11-18T00:58:43.257Z,303.10
2022-11-18T00:59:43.250Z,330.70
2022-11-18T01:00:43.256Z,333.10
2022-11-18T01:01:43.250Z,336.30
2022-11-18T01:02:43.260Z,271.30
2022-11-18T01:03:43.213Z,70.70
2022-11-18T01:04:43.175Z,215.30
2022-11-18T01:05:43.182Z,204.50
2022-11-18T01:06:43.158Z,158.90
2022-11-18T01:07:43.232Z,329.30
2022-11-18T01:08:43.135Z,375.50
2022-11-18T01:09:43.169Z,330.20
2022-11-18T01:10:43.118Z,374.20
2022-11-18T01:11:43.096Z,353.00
2022-11-18T01:12:43.107Z,346.60
2022-11-18T01:13:43.064Z,336.80
2022-11-18T01:14:43.058Z,359.40
2022-11-18T01:15:43.044Z,366.10
2022-11-18T01:16:43.054Z,354.50
2022-11-18T01:17:43.065Z,364.30
2022-11-18T01:18:43.035Z,331.20
2022-11-18T01:19:43.020Z,364.50
2022-11-18T01:20:43.021Z,358.50
2022-11-18T01:21:43.004Z,367.20
2022-11-18T01:22:43.051Z,343.80
2022-11-18T01:23:43.078Z,331.50
2022-11-18T01:24:42.968Z,360.20
2022-11-18T01:25:42.956Z,339.70
2022-11-18T01:26:42.921Z,331.50
2022-11-18T01:27:42.923Z,309.80
2022-11-18T01:28:42.943Z,355.80
2022-11-18T01:29:42.903Z,330.40
2022-11-18T01:30:42.913Z,350.50
2022-11-18T01:32:08.837Z,318.50
2022-11-18T01:32:43.864Z,324.40
2022-11-18T01:33:42.886Z,334.60
2022-11-18T01:34:42.853Z,310.90
2022-11-18T01:35:42.847Z,322.60
2022-11-18T01:36:42.829Z,312.30
2022-11-18T01:37:42.827Z,312.60
2022-11-18T01:38:42.846Z,304.00
2022-11-18T01:39:42.787Z,300.90
2022-11-18T01:40:42.794Z,316.30
2022-11-18T01:41:42.769Z,300.30
2022-11-18T01:42:42.766Z,303.20
2022-11-18T01:43:42.783Z,304.40
2022-11-18T01:44:42.733Z,307.40
2022-11-18T01:45:42.718Z,312.80
2022-11-18T01:46:42.728Z,303.70
2022-11-18T01:47:42.698Z,307.30
2022-11-18T01:48:42.699Z,310.60
2022-11-18T01:49:42.662Z,312.70
2022-11-18T01:50:42.645Z,313.50
2022-11-18T01:51:42.651Z,310.60
2022-11-18T01:52:45.211Z,308.90
2022-11-18T01:53:43.652Z,306.30
2022-11-18T01:54:42.649Z,315.70
2022-11-18T01:55:42.611Z,319.50
2022-11-18T01:56:42.602Z,310.20
2022-11-18T01:57:42.602Z,313.60
2022-11-18T01:58:42.603Z,328.90
2022-11-18T01:59:42.581Z,323.20
2022-11-18T02:00:42.558Z,309.10
2022-11-18T02:01:42.635Z,319.30
2022-11-18T02:02:42.519Z,314.30
2022-11-18T02:03:42.599Z,301.80
2022-11-18T02:04:42.506Z,306.90
2022-11-18T02:05:42.514Z,322.10
2022-11-18T02:06:42.484Z,317.20
2022-11-18T02:07:42.563Z,317.80
2022-11-18T02:08:42.511Z,317.90
2022-11-18T02:09:42.477Z,321.50
2022-11-18T02:10:42.448Z,319.70
2022-11-18T02:11:42.461Z,314.80
2022-11-18T02:12:42.421Z,311.80
2022-11-18T02:13:42.402Z,310.00
2022-11-18T02:14:42.431Z,319.60
2022-11-18T02:15:42.391Z,319.20
2022-11-18T02:16:42.382Z,282.30
2022-11-18T02:17:42.362Z,135.90
2022-11-18T02:18:42.368Z,297.00
2022-11-18T02:19:42.359Z,274.80
2022-11-18T02:20:42.339Z,285.10
2022-11-18T02:21:42.348Z,204.30
2022-11-18T02:22:42.314Z,219.00
2022-11-18T02:23:42.275Z,188.90
2022-11-18T02:24:42.307Z,291.60
2022-11-18T02:25:42.264Z,330.70
2022-11-18T02:26:42.248Z,449.40
2022-11-18T02:27:42.239Z,316.60
2022-11-18T02:28:42.246Z,323.60
2022-11-18T02:29:42.250Z,322.90
2022-11-18T02:30:42.210Z,334.00
2022-11-18T02:31:42.214Z,339.00
2022-11-18T02:32:42.189Z,332.90
2022-11-18T02:33:42.190Z,325.20
2022-11-18T02:34:42.191Z,319.10
2022-11-18T02:35:42.153Z,321.40
2022-11-18T02:36:42.148Z,331.20
2022-11-18T02:37:42.138Z,333.40
2022-11-18T02:38:42.127Z,329.60
2022-11-18T02:39:42.174Z,327.20
2022-11-18T02:40:42.133Z,294.80
2022-11-18T02:41:42.104Z,312.30
2022-11-18T02:42:42.066Z,336.60
2022-11-18T02:43:42.074Z,319.70
2022-11-18T02:44:42.083Z,321.00
2022-11-18T02:45:42.054Z,341.60
2022-11-18T02:46:42.027Z,328.60
2022-11-18T02:47:42.039Z,331.00
2022-11-18T02:48:42.006Z,324.70
2022-11-18T02:49:41.988Z,328.70
2022-11-18T02:50:42.012Z,331.70
2022-11-18T02:51:41.969Z,336.70
2022-11-18T02:52:41.981Z,335.20
2022-11-18T02:53:41.957Z,320.70
2022-11-18T02:54:41.931Z,327.50
2022-11-18T02:55:41.959Z,324.60
2022-11-18T02:56:41.907Z,330.30
2022-11-18T02:57:41.914Z,326.90
2022-11-18T02:58:41.873Z,343.70
2022-11-18T02:59:41.892Z,331.40
2022-11-18T03:00:41.906Z,342.90
2022-11-18T03:01:41.902Z,339.00
2022-11-18T03:02:41.839Z,346.60
2022-11-18T03:03:41.830Z,349.90
2022-11-18T03:04:41.826Z,347.30
2022-11-18T03:05:41.842Z,346.20
2022-11-18T03:06:41.820Z,355.50
2022-11-18T03:07:41.825Z,365.00
2022-11-18T03:08:41.769Z,362.20
2022-11-18T03:09:41.783Z,364.70
2022-11-18T03:10:41.753Z,372.70
2022-11-18T03:11:41.779Z,354.90
2022-11-18T03:12:41.743Z,368.60
2022-11-18T03:13:41.736Z,368.70
2022-11-18T03:14:41.712Z,393.30
2022-11-18T03:15:41.695Z,377.30
2022-11-18T03:16:41.705Z,374.30
2022-11-18T03:17:41.674Z,349.30
2022-11-18T03:18:41.664Z,364.20
2022-11-18T03:19:41.650Z,373.70
2022-11-18T03:20:41.615Z,372.90
2022-11-18T03:21:41.651Z,371.50
2022-11-18T03:22:41.619Z,366.00
2022-11-18T03:23:41.610Z,378.90
2022-11-18T03:24:41.597Z,368.20
2022-11-18T03:25:41.617Z,393.90
2022-11-18T03:26:41.621Z,370.10
2022-11-18T03:27:41.584Z,378.50
2022-11-18T03:28:41.552Z,375.60
2022-11-18T03:29:41.533Z,383.30
2022-11-18T03:30:41.523Z,385.90
2022-11-18T03:31:41.574Z,379.10
2022-11-18T03:32:41.518Z,376.00
2022-11-18T03:33:41.504Z,375.50
2022-11-18T03:34:41.464Z,372.30
2022-11-18T03:35:41.470Z,368.10
2022-11-18T03:36:41.452Z,372.60
2022-11-18T03:37:41.466Z,380.30
2022-11-18T03:38:41.421Z,377.70
2022-11-18T03:39:41.408Z,378.70
2022-11-18T03:40:41.395Z,386.50
2022-11-18T03:41:41.407Z,377.10
2022-11-18T03:42:41.419Z,373.90
2022-11-18T03:43:41.381Z,367.90
2022-11-18T03:44:41.377Z,364.50
2022-11-18T03:45:41.361Z,370.10
2022-11-18T03:46:41.348Z,372.80
2022-11-18T03:47:41.383Z,368.00
2022-11-18T03:48:41.315Z,376.50
2022-11-18T03:49:41.310Z,363.50
2022-11-18T03:50:41.285Z,365.80
2022-11-18T03:51:41.300Z,372.10
2022-11-18T03:52:41.324Z,362.10
2022-11-18T03:53:41.278Z,394.70
2022-11-18T03:54:41.260Z,370.30
2022-11-18T03:55:41.246Z,372.90
2022-11-18T03:56:41.237Z,378.40
2022-11-18T03:57:41.255Z,364.70
2022-11-18T03:58:41.218Z,370.50
2022-11-18T03:59:41.193Z,384.40
2022-11-18T04:00:41.196Z,360.90
2022-11-18T04:01:41.221Z,379.80
2022-11-18T04:02:41.217Z,359.10
2022-11-18T04:03:41.150Z,370.80
2022-11-18T04:04:41.133Z,345.30
2022-11-18T04:05:41.124Z,369.80
2022-11-18T04:06:41.118Z,374.20
2022-11-18T04:07:41.176Z,372.10
2022-11-18T04:08:41.132Z,378.60
2022-11-18T04:09:41.096Z,335.50
2022-11-18T04:10:41.091Z,350.10
2022-11-18T04:11:41.070Z,286.30
2022-11-18T04:12:41.063Z,313.90
2022-11-18T04:13:41.086Z,299.40
2022-11-18T04:14:41.021Z,294.40
2022-11-18T04:15:40.999Z,291.10
2022-11-18T04:16:40.990Z,303.70
2022-11-18T04:17:40.975Z,323.20
2022-11-18T04:18:41.010Z,303.60
2022-11-18T04:19:40.973Z,524.50
2022-11-18T04:20:40.953Z,311.00
2022-11-18T04:21:40.927Z,305.50
2022-11-18T04:22:40.940Z,296.20
2022-11-18T04:23:40.948Z,305.90
2022-11-18T04:24:40.933Z,305.50
2022-11-18T04:25:40.888Z,296.80
2022-11-18T04:26:40.886Z,289.80
2022-11-18T04:27:40.874Z,303.40
2022-11-18T04:28:40.887Z,305.20
2022-11-18T04:29:40.852Z,184.50
2022-11-18T04:30:40.844Z,318.70
2022-11-18T04:31:40.825Z,327.80
2022-11-18T04:32:40.824Z,240.40
2022-11-18T04:33:40.835Z,328.50
2022-11-18T04:34:40.805Z,151.80
2022-11-18T04:35:40.781Z,292.70
2022-11-18T04:36:40.773Z,316.30
2022-11-18T04:37:40.765Z,262.80
2022-11-18T04:38:40.800Z,373.30
2022-11-18T04:39:40.748Z,409.90
2022-11-18T04:40:40.760Z,365.60
2022-11-18T04:41:40.713Z,429.30
2022-11-18T04:42:40.714Z,355.20
2022-11-18T04:43:40.721Z,505.10
2022-11-18T04:44:40.694Z,472.90
2022-11-18T04:45:40.686Z,473.30
2022-11-18T04:46:40.670Z,481.60
2022-11-18T04:47:40.653Z,465.20
2022-11-18T04:48:40.687Z,439.60
2022-11-18T04:49:40.631Z,477.40
2022-11-18T04:50:40.616Z,459.00
2022-11-18T04:51:40.590Z,440.00
2022-11-18T04:52:40.586Z,513.00
2022-11-18T04:53:40.595Z,416.70
2022-11-18T04:54:40.564Z,435.80
2022-11-18T04:55:40.572Z,349.40
2022-11-18T04:56:45.658Z,470.70
2022-11-18T04:57:41.541Z,472.00
2022-11-18T04:58:40.588Z,454.80
2022-11-18T04:59:40.522Z,462.40
2022-11-18T05:00:40.520Z,432.80
2022-11-18T05:01:40.532Z,456.70
2022-11-18T05:02:40.498Z,440.60
2022-11-18T05:03:40.512Z,446.90
2022-11-18T05:04:40.453Z,434.00
2022-11-18T05:05:40.457Z,444.80
2022-11-18T05:06:40.453Z,430.50
2022-11-18T05:07:40.526Z,538.20
2022-11-18T05:08:40.449Z,415.00
2022-11-18T05:09:40.420Z,386.00
2022-11-18T05:10:40.527Z,345.20
2022-11-18T05:11:40.423Z,381.90
2022-11-18T05:12:40.378Z,415.30
2022-11-18T05:13:40.398Z,418.60
2022-11-18T05:14:43.008Z,432.80
2022-11-18T05:15:41.332Z,428.20
2022-11-18T05:16:40.339Z,425.60
2022-11-18T05:17:40.323Z,291.10
2022-11-18T05:18:40.351Z,442.90
2022-11-18T05:19:40.311Z,445.60
2022-11-18T05:20:41.751Z,441.30
2022-11-18T05:21:40.279Z,416.20
2022-11-18T05:22:40.284Z,426.20
2022-11-18T05:23:40.277Z,391.90
2022-11-18T05:24:40.238Z,375.30
2022-11-18T05:25:40.239Z,384.20
2022-11-18T05:26:40.213Z,510.30
2022-11-18T05:27:40.182Z,408.80
2022-11-18T05:28:40.181Z,147.30
2022-11-18T05:29:40.203Z,361.50
2022-11-18T05:30:40.169Z,218.90
2022-11-18T05:31:40.163Z,463.40
2022-11-18T05:32:40.142Z,445.40
2022-11-18T05:33:40.126Z,434.60
2022-11-18T05:34:40.151Z,440.80
2022-11-18T05:35:40.105Z,443.80
2022-11-18T05:36:40.123Z,442.80
2022-11-18T05:37:40.089Z,398.50
2022-11-18T05:38:40.093Z,426.60
2022-11-18T05:39:40.075Z,427.10
2022-11-18T05:40:40.060Z,412.60
2022-11-18T05:41:40.063Z,423.00
2022-11-18T05:42:40.027Z,387.60
2022-11-18T05:43:40.071Z,418.30
2022-11-18T05:44:40.064Z,405.80
2022-11-18T05:45:39.986Z,398.10
2022-11-18T05:46:40.001Z,400.60
2022-11-18T05:47:39.969Z,409.20
2022-11-18T05:48:39.983Z,443.10
2022-11-18T05:49:40.010Z,412.40
2022-11-18T05:50:39.934Z,389.00
2022-11-18T05:51:39.942Z,437.90
2022-11-18T05:52:39.938Z,574.70
2022-11-18T05:53:39.922Z,448.70
2022-11-18T05:54:39.945Z,480.90
2022-11-18T05:55:39.893Z,458.80
2022-11-18T05:56:39.879Z,539.50
2022-11-18T05:57:39.874Z,451.80
2022-11-18T05:58:39.850Z,404.70
2022-11-18T05:59:39.869Z,417.90
2022-11-18T06:00:39.847Z,410.30
2022-11-18T06:01:39.815Z,394.70
2022-11-18T06:02:39.830Z,396.60
2022-11-18T06:03:39.806Z,411.70
2022-11-18T06:04:39.805Z,361.90
2022-11-18T06:05:39.758Z,357.70
2022-11-18T06:06:39.762Z,432.20
2022-11-18T06:07:39.830Z,441.30
2022-11-18T06:08:39.761Z,408.70
2022-11-18T06:09:39.780Z,412.30
2022-11-18T06:10:39.732Z,394.00
2022-11-18T06:11:39.712Z,402.30
2022-11-18T06:12:39.699Z,408.70
2022-11-18T06:13:39.691Z,391.70
2022-11-18T06:14:39.778Z,394.40
2022-11-18T06:15:39.685Z,404.50
2022-11-18T06:16:41.108Z,383.20
2022-11-18T06:17:39.652Z,385.80
2022-11-18T06:18:39.640Z,445.00
2022-11-18T06:19:39.665Z,430.10
2022-11-18T06:20:39.611Z,409.90
2022-11-18T06:21:39.606Z,413.30
2022-11-18T06:22:44.984Z,383.70
2022-11-18T06:23:40.564Z,397.20
2022-11-18T06:24:39.594Z,416.20
2022-11-18T06:25:39.558Z,398.40
2022-11-18T06:26:39.558Z,391.60
2022-11-18T06:27:39.539Z,387.60
2022-11-18T06:28:39.518Z,391.80
2022-11-18T06:29:39.559Z,406.30
2022-11-18T06:30:39.510Z,381.80
2022-11-18T06:31:39.494Z,399.00
2022-11-18T06:32:39.482Z,393.80
2022-11-18T06:33:39.475Z,395.30
2022-11-18T06:34:41.764Z,406.70
2022-11-18T06:35:39.444Z,393.90
2022-11-18T06:36:39.422Z,399.70
2022-11-18T06:37:39.423Z,412.90
2022-11-18T06:38:39.440Z,434.60
2022-11-18T06:39:39.413Z,468.90
2022-11-18T06:40:39.371Z,751.80
2022-11-18T06:41:39.355Z,659.20
2022-11-18T06:42:39.357Z,656.90
2022-11-18T06:43:39.384Z,664.60
2022-11-18T06:44:39.405Z,633.30
2022-11-18T06:45:39.337Z,471.40
2022-11-18T06:46:39.331Z,464.60
2022-11-18T06:47:39.312Z,472.70
2022-11-18T06:48:39.303Z,491.40
2022-11-18T06:49:39.322Z,302.80
2022-11-18T06:50:39.287Z,459.30
2022-11-18T06:51:39.263Z,615.10
2022-11-18T06:52:39.270Z,482.90
2022-11-18T06:53:39.242Z,449.30
2022-11-18T06:54:39.247Z,473.20
2022-11-18T06:55:39.210Z,460.30
2022-11-18T06:56:39.219Z,458.60
2022-11-18T06:57:39.201Z,459.70
2022-11-18T06:58:39.201Z,442.30
2022-11-18T06:59:39.230Z,443.60
2022-11-18T07:00:39.196Z,436.90
2022-11-18T07:01:39.150Z,444.70
2022-11-18T07:02:39.142Z,334.10
2022-11-18T07:03:39.122Z,497.10
2022-11-18T07:04:39.105Z,512.10
2022-11-18T07:05:39.126Z,550.50
2022-11-18T07:06:39.100Z,486.20
2022-11-18T07:07:42.255Z,488.00
2022-11-18T07:08:39.074Z,492.30
2022-11-18T07:09:39.072Z,480.90
2022-11-18T07:10:39.097Z,466.40
2022-11-18T07:11:39.028Z,505.00
2022-11-18T07:12:39.041Z,587.50
2022-11-18T07:13:43.398Z,462.90
2022-11-18T07:14:39.030Z,500.50
2022-11-18T07:15:39.053Z,453.30
2022-11-18T07:16:38.979Z,574.90
2022-11-18T07:17:38.962Z,477.60
2022-11-18T07:18:38.956Z,427.70
2022-11-18T07:19:38.942Z,446.40
2022-11-18T07:20:38.989Z,439.10
2022-11-18T07:21:38.940Z,689.90
2022-11-18T07:22:38.916Z,530.40
2022-11-18T07:23:38.926Z,272.60
2022-11-18T07:24:38.903Z,529.40
2022-11-18T07:25:44.043Z,679.50
2022-11-18T07:26:39.881Z,284.70
2022-11-18T07:27:38.874Z,499.90
2022-11-18T07:28:38.848Z,672.40
2022-11-18T07:29:38.821Z,448.20
2022-11-18T07:30:38.875Z,418.70
2022-11-18T07:31:38.815Z,449.70
2022-11-18T07:32:38.826Z,602.70
2022-11-18T07:33:38.801Z,411.30
2022-11-18T07:34:38.802Z,410.10
2022-11-18T07:35:38.812Z,424.90
2022-11-18T07:36:38.779Z,477.40
2022-11-18T07:37:38.745Z,505.10
2022-11-18T07:38:38.765Z,537.30
2022-11-18T07:39:38.735Z,456.20
2022-11-18T07:40:38.773Z,520.40
2022-11-18T07:41:38.731Z,319.80
2022-11-18T07:42:38.729Z,431.30
2022-11-18T07:43:38.694Z,672.60
2022-11-18T07:44:38.678Z,740.30
2022-11-18T07:45:38.706Z,999.90
2022-11-18T07:46:38.660Z,527.30
2022-11-18T07:47:38.634Z,529.20
2022-11-18T07:48:38.640Z,600.50
2022-11-18T07:49:38.670Z,565.00
2022-11-18T07:50:41.934Z,851.50
2022-11-18T07:51:39.602Z,473.60
2022-11-18T07:52:38.566Z,561.10
2022-11-18T07:53:38.563Z,507.30
2022-11-18T07:54:38.548Z,328.50
2022-11-18T07:55:38.580Z,448.00
2022-11-18T07:56:38.535Z,484.90
2022-11-18T07:57:38.542Z,449.30
2022-11-18T07:58:38.517Z,378.40
2022-11-18T07:59:38.500Z,399.10
2022-11-18T08:00:38.545Z,387.10
2022-11-18T08:01:38.687Z,369.70
2022-11-18T08:02:38.488Z,352.50
2022-11-18T08:03:38.457Z,383.00
2022-11-18T08:04:38.472Z,372.00
2022-11-18T08:05:38.552Z,354.00
2022-11-18T08:06:38.431Z,695.90
2022-11-18T08:07:38.466Z,374.40
2022-11-18T08:08:38.409Z,428.90
2022-11-18T08:09:38.387Z,385.90
2022-11-18T08:10:38.439Z,408.10
2022-11-18T08:11:38.391Z,519.00
2022-11-18T08:12:38.360Z,608.70
2022-11-18T08:13:38.366Z,288.70
2022-11-18T08:14:38.370Z,569.80
2022-11-18T08:15:38.379Z,730.10
2022-11-18T08:16:38.303Z,774.10
2022-11-18T08:17:38.323Z,591.30
2022-11-18T08:18:38.302Z,541.60
2022-11-18T08:19:38.274Z,677.10
2022-11-18T08:20:38.301Z,822.50
2022-11-18T08:21:38.279Z,689.50
2022-11-18T08:22:38.250Z,780.90
2022-11-18T08:23:42.017Z,788.50
2022-11-18T08:24:38.227Z,787.00
2022-11-18T08:25:38.218Z,999.90
2022-11-18T08:26:38.258Z,579.90
2022-11-18T08:27:38.182Z,875.60
2022-11-18T08:28:38.238Z,787.70
2022-11-18T08:29:38.179Z,651.10
2022-11-18T08:30:38.160Z,685.60
2022-11-18T08:31:38.192Z,720.60
2022-11-18T08:32:38.141Z,711.30
2022-11-18T08:33:38.125Z,758.20
2022-11-18T08:34:38.112Z,806.60
2022-11-18T08:35:38.097Z,670.30
2022-11-18T08:36:38.133Z,679.00
2022-11-18T08:37:38.091Z,661.80
2022-11-18T08:38:38.059Z,746.50
2022-11-18T08:39:38.061Z,626.90
2022-11-18T08:40:38.042Z,673.90
2022-11-18T08:41:38.061Z,687.30
2022-11-18T08:42:38.013Z,848.50
2022-11-18T08:43:38.017Z,773.60
2022-11-18T08:44:37.995Z,798.80
2022-11-18T08:45:38.006Z,772.60
2022-11-18T08:46:37.990Z,734.20
2022-11-18T08:47:38.000Z,870.70
2022-11-18T08:48:37.976Z,661.90
2022-11-18T08:49:37.942Z,706.70
2022-11-18T08:50:37.948Z,999.90
2022-11-18T08:51:37.973Z,221.40
2022-11-18T08:52:37.917Z,999.90
2022-11-18T08:53:37.922Z,999.90
2022-11-18T08:54:37.886Z,630.10
2022-11-18T08:55:37.865Z,999.90
2022-11-18T08:56:37.962Z,999.90
2022-11-18T08:57:37.865Z,999.90
2022-11-18T08:58:37.851Z,999.90
2022-11-18T08:59:37.860Z,999.90
2022-11-18T09:00:37.828Z,999.90
2022-11-18T09:01:37.899Z,999.90
2022-11-18T09:02:37.812Z,999.90
2022-11-18T09:03:37.772Z,999.90
2022-11-18T09:04:37.764Z,999.90
2022-11-18T09:05:37.752Z,999.90
2022-11-18T09:06:37.789Z,999.90
2022-11-18T09:07:37.784Z,999.90
2022-11-18T09:08:37.733Z,210.90
2022-11-18T09:09:37.722Z,999.90
2022-11-18T09:10:37.706Z,999.90
2022-11-18T09:11:37.726Z,999.90
2022-11-18T09:12:37.677Z,999.90
2022-11-18T09:14:04.290Z,999.90
2022-11-18T09:15:12.902Z,999.90
2022-11-18T09:15:38.675Z,999.90
2022-11-18T09:16:37.682Z,999.90
2022-11-18T09:17:37.759Z,999.90
2022-11-18T09:18:37.695Z,999.90
2022-11-18T09:19:47.349Z,999.90
2022-11-18T09:20:38.600Z,999.90
2022-11-18T09:21:40.822Z,999.90
2022-11-18T09:22:37.615Z,999.90
2022-11-18T09:23:37.565Z,999.90
2022-11-18T09:24:37.542Z,999.90
2022-11-18T09:25:37.551Z,999.90
2022-11-18T09:26:37.582Z,999.90
2022-11-18T09:27:38.349Z,999.90
2022-11-18T09:28:37.510Z,999.90
2022-11-18T09:29:37.505Z,999.90
2022-11-18T09:30:37.489Z,999.90
2022-11-18T09:31:37.511Z,999.90
2022-11-18T09:32:37.473Z,999.90
2022-11-18T09:33:37.477Z,999.90
2022-11-18T09:34:37.439Z,999.90
2022-11-18T09:35:37.430Z,999.90
2022-11-18T09:36:37.454Z,999.90
2022-11-18T09:37:37.414Z,999.90
2022-11-18T09:38:37.387Z,999.90
2022-11-18T09:39:37.524Z,999.90
2022-11-18T09:40:37.364Z,999.90
2022-11-18T09:41:37.391Z,999.90
2022-11-18T09:42:37.338Z,999.90
2022-11-18T09:43:37.349Z,999.90
2022-11-18T09:44:37.314Z,999.90
2022-11-18T09:45:37.327Z,999.90
2022-11-18T09:46:37.350Z,999.90
2022-11-18T09:47:37.298Z,999.90
2022-11-18T09:48:37.286Z,999.90
2022-11-18T09:49:37.284Z,999.90
2022-11-18T09:50:52.683Z,999.90
2022-11-18T09:51:38.443Z,999.90
2022-11-18T09:52:37.254Z,999.90
2022-11-18T09:53:37.255Z,999.90
2022-11-18T09:54:37.224Z,999.90
2022-11-18T09:55:37.207Z,999.90
2022-11-18T09:56:37.305Z,612.20
2022-11-18T09:57:37.214Z,672.40
2022-11-18T09:58:37.181Z,723.90
2022-11-18T09:59:37.176Z,530.40
2022-11-18T10:00:37.155Z,610.90
2022-11-18T10:01:37.199Z,497.00
2022-11-18T10:02:37.169Z,773.00
2022-11-18T10:03:37.093Z,741.20
2022-11-18T10:04:37.103Z,486.50
2022-11-18T10:05:37.086Z,408.60
2022-11-18T10:06:37.086Z,506.50
2022-11-18T10:07:37.179Z,418.90
2022-11-18T10:08:37.077Z,639.60
2022-11-18T10:09:37.047Z,400.60
2022-11-18T10:10:37.046Z,609.70
2022-11-18T10:11:40.349Z,480.60
2022-11-18T10:12:38.050Z,555.50
2022-11-18T10:13:36.999Z,709.60
2022-11-18T10:14:36.979Z,666.40
2022-11-18T10:15:37.074Z,894.40
2022-11-18T10:16:36.980Z,608.60
2022-11-18T10:17:36.995Z,864.50
2022-11-18T10:19:37.934Z,828.80
2022-11-18T10:20:36.939Z,983.10
2022-11-18T10:21:36.924Z,999.90
2022-11-18T10:22:36.935Z,999.90
2022-11-18T10:23:36.912Z,999.90
2022-11-18T10:24:36.900Z,624.10
2022-11-18T10:25:36.863Z,558.50
2022-11-18T10:26:36.862Z,927.10
2022-11-18T10:27:36.869Z,487.80
2022-11-18T10:28:36.827Z,433.40
2022-11-18T10:29:36.829Z,477.10
2022-11-18T10:30:36.800Z,453.70
2022-11-18T10:31:36.855Z,435.00
2022-11-18T10:32:36.786Z,402.70
2022-11-18T10:33:36.801Z,450.90
2022-11-18T10:34:36.768Z,405.70
2022-11-18T10:35:36.759Z,143.40
2022-11-18T10:36:36.741Z,59.50
2022-11-18T10:38:06.388Z,196.90
2022-11-18T10:38:37.753Z,388.80
2022-11-18T10:39:36.711Z,367.30
2022-11-18T10:40:36.697Z,385.70
2022-11-18T10:41:36.674Z,385.90
2022-11-18T10:42:36.676Z,388.40
2022-11-18T10:43:36.697Z,365.00
2022-11-18T10:44:36.651Z,431.20
2022-11-18T10:45:36.642Z,364.40
2022-11-18T10:46:36.625Z,380.60
2022-11-18T10:47:36.623Z,286.30
2022-11-18T10:48:36.625Z,354.40
2022-11-18T10:49:36.589Z,365.10
2022-11-18T10:50:36.574Z,385.90
2022-11-18T10:51:36.565Z,392.00
2022-11-18T10:52:36.562Z,363.90
2022-11-18T10:53:36.580Z,406.10
2022-11-18T10:54:36.562Z,456.30
2022-11-18T10:55:36.522Z,495.20
2022-11-18T10:56:36.503Z,422.70
2022-11-18T10:57:36.511Z,379.30
2022-11-18T10:58:36.543Z,401.60
2022-11-18T10:59:36.492Z,310.60
2022-11-18T11:00:36.464Z,266.90
2022-11-18T11:01:36.515Z,368.10
2022-11-18T11:02:36.448Z,384.20
2022-11-18T11:03:36.471Z,391.30
2022-11-18T11:04:36.428Z,379.10
2022-11-18T11:05:36.411Z,387.80
2022-11-18T11:06:36.438Z,263.20
2022-11-18T11:07:36.499Z,287.20
2022-11-18T11:08:37.839Z,313.80
2022-11-18T11:09:36.379Z,304.60
2022-11-18T11:10:36.380Z,327.20
2022-11-18T11:11:36.347Z,351.60
2022-11-18T11:12:36.321Z,337.10
2022-11-18T11:13:36.339Z,311.60
2022-11-18T11:14:36.318Z,126.50
2022-11-18T11:15:36.320Z,41.20
2022-11-18T11:16:36.288Z,100.30
2022-11-18T11:17:36.418Z,28.50
2022-11-18T11:18:36.323Z,15.20
2022-11-18T11:19:36.260Z,95.10
2022-11-18T11:20:36.256Z,89.60
2022-11-18T11:21:36.229Z,259.10
2022-11-18T11:22:36.224Z,358.80
2022-11-18T11:23:36.258Z,336.10
2022-11-18T11:24:36.181Z,347.60
2022-11-18T11:28:37.181Z,100.00
2022-11-18T11:29:36.147Z,100.20
2022-11-18T11:30:36.142Z,293.80
2022-11-18T11:31:36.117Z,488.80
2022-11-18T11:32:36.113Z,495.80
2022-11-18T11:33:36.132Z,483.30
2022-11-18T11:34:36.085Z,498.40
2022-11-18T11:35:36.098Z,493.90
2022-11-18T11:36:36.076Z,470.00
2022-11-18T11:37:36.059Z,395.50
2022-11-18T11:38:36.071Z,357.10
2022-11-18T11:39:36.031Z,251.20
2022-11-18T11:40:36.034Z,253.90
2022-11-18T11:41:36.032Z,250.80
2022-11-18T11:42:35.987Z,272.90
2022-11-18T11:43:35.997Z,282.20
2022-11-18T11:44:36.005Z,301.60
2022-11-18T11:45:35.988Z,283.80
2022-11-18T11:46:35.940Z,235.60
2022-11-18T11:47:35.957Z,245.20
2022-11-18T11:48:35.927Z,212.50
2022-11-18T11:49:35.946Z,210.80
2022-11-18T11:50:35.910Z,71.50
2022-11-18T11:51:35.909Z,36.70
2022-11-18T11:52:35.901Z,17.30
2022-11-18T11:53:35.893Z,96.90
2022-11-18T11:54:35.893Z,100.80
2022-11-18T11:55:35.847Z,39.40
2022-11-18T11:56:35.856Z,129.10
2022-11-18T11:57:35.835Z,280.70
2022-11-18T11:58:35.799Z,300.20
2022-11-18T11:59:35.854Z,314.10
2022-11-18T12:00:35.761Z,289.90
2022-11-18T12:01:35.762Z,304.40
2022-11-18T12:02:35.817Z,300.60
2022-11-18T12:03:35.741Z,300.70
2022-11-18T12:04:35.766Z,299.10
2022-11-18T12:05:35.736Z,283.40
2022-11-18T12:06:35.718Z,283.30
2022-11-18T12:07:35.845Z,267.20
2022-11-18T12:08:35.711Z,265.50
2022-11-18T12:09:35.749Z,236.30
2022-11-18T12:10:35.718Z,22.70
2022-11-18T12:11:35.675Z,78.00
2022-11-18T12:12:35.658Z,88.00
2022-11-18T12:13:35.658Z,86.70
2022-11-18T12:14:39.712Z,57.90
2022-11-18T12:15:35.654Z,104.30
2022-11-18T12:16:35.620Z,19.30
2022-11-18T12:17:35.606Z,121.30
2022-11-18T12:18:35.592Z,65.10
2022-11-18T12:19:35.609Z,232.50
2022-11-18T12:20:35.574Z,234.70
2022-11-18T12:21:35.565Z,216.80
2022-11-18T12:22:35.554Z,219.40
2022-11-18T12:23:35.542Z,205.90
2022-11-18T12:24:35.550Z,181.20
2022-11-18T12:25:35.523Z,189.00
2022-11-18T12:26:35.491Z,204.40
2022-11-18T12:27:35.486Z,235.30
2022-11-18T12:28:35.480Z,242.70
2022-11-18T12:29:35.496Z,216.40
2022-11-18T12:30:35.438Z,189.90
2022-11-18T12:31:35.451Z,204.10
2022-11-18T12:32:35.436Z,246.20
2022-11-18T12:33:35.407Z,270.20